createdAt,value
2018-05-26T00:00:47.087Z,996.17
2018-05-26T00:02:39.855Z,996.19
2018-05-26T00:03:39.736Z,996.19
2018-05-26T00:05:32.629Z,996.16
2018-05-26T00:06:32.399Z,996.16
2018-05-26T00:08:25.141Z,996.18
2018-05-26T00:09:25.033Z,996.19
2018-05-26T00:11:17.891Z,996.15
2018-05-26T00:12:17.792Z,996.13
2018-05-26T00:14:10.629Z,996.15
2018-05-26T00:15:10.543Z,996.13
2018-05-26T00:17:03.417Z,996.13
2018-05-26T00:18:03.300Z,996.16
2018-05-26T00:19:56.128Z,996.14
2018-05-26T00:20:56.033Z,996.15
2018-05-26T00:22:48.881Z,996.18
2018-05-26T00:23:48.780Z,996.17
2018-05-26T00:25:41.617Z,996.17
2018-05-26T00:26:41.533Z,996.16
2018-05-26T00:28:34.386Z,996.12
2018-05-26T00:29:34.280Z,996.08
2018-05-26T00:31:28.560Z,996.14
2018-05-26T00:32:28.482Z,996.08
2018-05-26T00:34:21.347Z,996.15
2018-05-26T00:35:21.126Z,996.14
2018-05-26T00:37:13.918Z,996.16
2018-05-26T00:38:13.753Z,996.13
2018-05-26T00:40:06.599Z,996.12
2018-05-26T00:41:06.505Z,996.14
2018-05-26T00:42:59.349Z,996.13
2018-05-26T00:43:59.255Z,996.07
2018-05-26T00:45:52.094Z,996.11
2018-05-26T00:46:51.996Z,996.10
2018-05-26T00:48:44.773Z,996.11
2018-05-26T00:49:44.653Z,996.12
2018-05-26T00:51:37.500Z,996.11
2018-05-26T00:52:37.399Z,996.11
2018-05-26T00:54:30.263Z,996.11
2018-05-26T00:55:30.061Z,996.12
2018-05-26T00:57:22.908Z,996.14
2018-05-26T00:58:22.717Z,996.14
2018-05-26T01:00:15.472Z,996.21
2018-05-26T01:01:15.351Z,996.17
2018-05-26T01:03:08.087Z,996.26
2018-05-26T01:04:07.990Z,996.26
2018-05-26T01:06:00.749Z,996.22
2018-05-26T01:07:00.633Z,996.25
2018-05-26T01:08:53.378Z,996.25
2018-05-26T01:09:53.289Z,996.22
2018-05-26T01:11:46.049Z,996.26
2018-05-26T01:12:45.930Z,996.27
2018-05-26T01:14:39.215Z,996.26
2018-05-26T01:15:39.206Z,996.22
2018-05-26T01:17:32.008Z,996.23
2018-05-26T01:18:31.839Z,996.28
2018-05-26T01:20:24.703Z,996.25
2018-05-26T01:21:24.652Z,996.24
2018-05-26T01:23:17.344Z,996.28
2018-05-26T01:24:17.264Z,996.26
2018-05-26T01:26:10.195Z,996.34
2018-05-26T01:27:09.985Z,996.31
2018-05-26T01:29:02.972Z,996.32
2018-05-26T01:30:02.838Z,996.33
2018-05-26T01:31:55.623Z,996.31
2018-05-26T01:32:55.483Z,996.31
2018-05-26T01:34:48.324Z,996.36
2018-05-26T01:35:48.243Z,996.34
2018-05-26T01:37:41.086Z,996.33
2018-05-26T01:38:40.983Z,996.33
2018-05-26T01:40:33.856Z,996.30
2018-05-26T01:41:33.736Z,996.32
2018-05-26T01:43:26.588Z,996.28
2018-05-26T01:44:26.474Z,996.28
2018-05-26T01:46:19.344Z,996.24
2018-05-26T01:47:19.240Z,996.24
2018-05-26T01:49:12.135Z,996.23
2018-05-26T01:50:11.996Z,996.24
2018-05-26T01:52:05.660Z,996.24
2018-05-26T01:53:04.631Z,996.28
2018-05-26T01:54:57.498Z,996.30
2018-05-26T01:55:57.391Z,996.32
2018-05-26T01:57:50.148Z,996.29
2018-05-26T01:58:50.053Z,996.24
2018-05-26T02:00:42.903Z,996.23
2018-05-26T02:01:42.792Z,996.22
2018-05-26T02:03:36.044Z,996.24
2018-05-26T02:04:35.961Z,996.22
2018-05-26T02:06:29.197Z,996.20
2018-05-26T02:07:29.107Z,996.25
2018-05-26T02:09:21.979Z,996.24
2018-05-26T02:10:21.838Z,996.24
2018-05-26T02:12:14.582Z,996.24
2018-05-26T02:13:14.507Z,996.26
2018-05-26T02:15:07.403Z,996.23
2018-05-26T02:16:07.245Z,996.23
2018-05-26T02:18:00.154Z,996.22
2018-05-26T02:18:59.989Z,996.18
2018-05-26T02:20:52.881Z,996.19
2018-05-26T02:21:52.754Z,996.19
2018-05-26T02:23:45.596Z,996.20
2018-05-26T02:24:45.501Z,996.20
2018-05-26T02:26:38.406Z,996.23
2018-05-26T02:27:38.329Z,996.23
2018-05-26T02:29:31.030Z,996.18
2018-05-26T02:30:30.888Z,996.18
2018-05-26T02:32:23.630Z,996.15
2018-05-26T02:33:23.532Z,996.17
2018-05-26T02:35:16.394Z,996.16
2018-05-26T02:36:16.188Z,996.11
2018-05-26T02:38:08.922Z,996.15
2018-05-26T02:39:08.830Z,996.15
2018-05-26T02:41:01.584Z,996.15
2018-05-26T02:42:01.496Z,996.17
2018-05-26T02:43:54.328Z,996.08
2018-05-26T02:44:54.225Z,996.09
2018-05-26T02:46:46.970Z,996.11
2018-05-26T02:47:46.874Z,996.10
2018-05-26T02:49:39.616Z,996.04
2018-05-26T02:50:39.526Z,996.02
2018-05-26T02:52:32.378Z,996.05
2018-05-26T02:53:32.269Z,996.05
2018-05-26T02:55:25.117Z,996.08
2018-05-26T02:56:25.022Z,996.10
2018-05-26T02:58:17.792Z,996.10
2018-05-26T02:59:17.693Z,996.08
2018-05-26T03:01:10.437Z,996.03
2018-05-26T03:02:10.312Z,996.08
2018-05-26T03:04:03.191Z,996.07
2018-05-26T03:05:03.060Z,996.10
2018-05-26T03:06:55.824Z,996.13
2018-05-26T03:07:55.730Z,996.11
2018-05-26T03:09:48.510Z,996.10
2018-05-26T03:10:48.376Z,996.12
2018-05-26T03:12:41.216Z,996.06
2018-05-26T03:13:41.103Z,996.08
2018-05-26T03:15:33.950Z,996.08
2018-05-26T03:16:33.864Z,996.08
2018-05-26T03:18:26.612Z,996.10
2018-05-26T03:19:26.495Z,996.10
2018-05-26T03:21:19.397Z,996.11
2018-05-26T03:22:19.250Z,996.09
2018-05-26T03:24:12.057Z,996.12
2018-05-26T03:25:11.912Z,996.12
2018-05-26T03:27:07.721Z,996.09
2018-05-26T03:28:07.630Z,996.09
2018-05-26T03:30:00.484Z,996.13
2018-05-26T03:31:00.392Z,996.10
2018-05-26T03:32:54.253Z,996.13
2018-05-26T03:33:54.135Z,996.14
2018-05-26T03:35:46.989Z,996.15
2018-05-26T03:36:46.789Z,996.17
2018-05-26T03:38:39.727Z,996.20
2018-05-26T03:39:39.562Z,996.14
2018-05-26T03:41:32.316Z,996.17
2018-05-26T03:42:32.188Z,996.15
2018-05-26T03:44:25.046Z,996.16
2018-05-26T03:45:24.948Z,996.18
2018-05-26T03:47:17.675Z,996.19
2018-05-26T03:48:17.591Z,996.17
2018-05-26T03:50:10.351Z,996.17
2018-05-26T03:51:10.226Z,996.15
2018-05-26T03:53:03.073Z,996.14
2018-05-26T03:54:02.985Z,996.15
2018-05-26T03:55:55.747Z,996.16
2018-05-26T03:56:55.623Z,996.16
2018-05-26T03:58:48.470Z,996.16
2018-05-26T03:59:48.371Z,996.19
2018-05-26T04:01:41.132Z,996.19
2018-05-26T04:02:41.021Z,996.22
2018-05-26T04:04:33.773Z,996.21
2018-05-26T04:05:33.673Z,996.19
2018-05-26T04:07:26.452Z,996.20
2018-05-26T04:08:26.318Z,996.17
2018-05-26T04:10:19.576Z,996.18
2018-05-26T04:11:19.523Z,996.19
2018-05-26T04:13:12.241Z,996.19
2018-05-26T04:14:12.121Z,996.18
2018-05-26T04:16:04.895Z,996.20
2018-05-26T04:17:04.766Z,996.22
2018-05-26T04:18:57.553Z,996.23
2018-05-26T04:19:57.431Z,996.21
2018-05-26T04:21:50.191Z,996.25
2018-05-26T04:22:50.066Z,996.23
2018-05-26T04:24:43.929Z,996.25
2018-05-26T04:25:43.754Z,996.26
2018-05-26T04:27:36.615Z,996.28
2018-05-26T04:28:36.481Z,996.28
2018-05-26T04:30:29.339Z,996.29
2018-05-26T04:31:29.237Z,996.33
2018-05-26T04:33:22.014Z,996.34
2018-05-26T04:34:21.881Z,996.31
2018-05-26T04:36:14.624Z,996.30
2018-05-26T04:37:14.532Z,996.33
2018-05-26T04:39:07.291Z,996.34
2018-05-26T04:40:07.176Z,996.31
2018-05-26T04:42:00.441Z,996.32
2018-05-26T04:43:00.333Z,996.33
2018-05-26T04:44:53.113Z,996.36
2018-05-26T04:45:52.984Z,996.40
2018-05-26T04:47:45.875Z,996.42
2018-05-26T04:48:45.720Z,996.41
2018-05-26T04:50:38.494Z,996.43
2018-05-26T04:51:38.382Z,996.45
2018-05-26T04:53:31.125Z,996.47
2018-05-26T04:54:31.026Z,996.44
2018-05-26T04:56:24.395Z,996.45
2018-05-26T04:57:23.771Z,996.47
2018-05-26T04:59:16.528Z,996.48
2018-05-26T05:00:16.432Z,996.50
2018-05-26T05:02:09.189Z,996.53
2018-05-26T05:03:09.069Z,996.50
2018-05-26T05:05:01.824Z,996.49
2018-05-26T05:06:01.721Z,996.49
2018-05-26T05:07:54.470Z,996.51
2018-05-26T05:08:54.366Z,996.50
2018-05-26T05:10:47.217Z,996.49
2018-05-26T05:11:47.109Z,996.54
2018-05-26T05:13:39.979Z,996.49
2018-05-26T05:14:39.860Z,996.52
2018-05-26T05:16:33.162Z,996.57
2018-05-26T05:17:33.032Z,996.60
2018-05-26T05:19:26.339Z,996.57
2018-05-26T05:20:26.193Z,996.62
2018-05-26T05:22:19.055Z,996.61
2018-05-26T05:23:18.986Z,996.65
2018-05-26T05:25:11.923Z,996.67
2018-05-26T05:26:11.584Z,996.67
2018-05-26T05:28:04.510Z,996.67
2018-05-26T05:29:04.330Z,996.69
2018-05-26T05:30:57.193Z,996.70
2018-05-26T05:31:57.093Z,996.69
2018-05-26T05:33:49.927Z,996.72
2018-05-26T05:34:49.851Z,996.69
2018-05-26T05:36:42.688Z,996.77
2018-05-26T05:37:42.609Z,996.78
2018-05-26T05:39:35.421Z,996.80
2018-05-26T05:40:35.318Z,996.84
2018-05-26T05:42:28.088Z,996.83
2018-05-26T05:43:27.976Z,996.82
2018-05-26T05:45:20.749Z,996.86
2018-05-26T05:46:20.641Z,996.83
2018-05-26T05:48:13.987Z,996.87
2018-05-26T05:49:13.901Z,996.84
2018-05-26T05:51:07.168Z,996.83
2018-05-26T05:52:07.044Z,996.81
2018-05-26T05:54:00.836Z,996.82
2018-05-26T05:55:00.727Z,996.83
2018-05-26T05:56:53.496Z,996.86
2018-05-26T05:57:53.386Z,996.91
2018-05-26T05:59:46.154Z,996.83
2018-05-26T06:00:46.030Z,996.84
2018-05-26T06:02:38.781Z,996.90
2018-05-26T06:03:38.663Z,996.90
2018-05-26T06:05:31.394Z,996.94
2018-05-26T06:06:31.318Z,996.94
2018-05-26T06:08:26.049Z,996.92
2018-05-26T06:09:24.725Z,996.96
2018-05-26T06:11:17.445Z,996.95
2018-05-26T06:12:17.367Z,996.96
2018-05-26T06:14:10.178Z,996.97
2018-05-26T06:15:10.071Z,996.93
2018-05-26T06:17:03.335Z,996.95
2018-05-26T06:18:03.224Z,996.90
2018-05-26T06:19:56.492Z,996.93
2018-05-26T06:20:56.386Z,996.95
2018-05-26T06:22:49.309Z,996.97
2018-05-26T06:23:49.203Z,996.96
2018-05-26T06:25:42.048Z,996.99
2018-05-26T06:26:41.896Z,996.98
2018-05-26T06:28:34.749Z,996.99
2018-05-26T06:29:34.623Z,996.99
2018-05-26T06:31:28.432Z,996.99
2018-05-26T06:32:28.303Z,997.02
2018-05-26T06:34:21.164Z,997.03
2018-05-26T06:35:21.067Z,997.01
2018-05-26T06:37:14.411Z,997.04
2018-05-26T06:38:14.328Z,997.06
2018-05-26T06:40:07.205Z,997.08
2018-05-26T06:41:07.090Z,997.06
2018-05-26T06:42:59.908Z,997.10
2018-05-26T06:43:59.828Z,997.13
2018-05-26T06:45:52.667Z,997.08
2018-05-26T06:46:52.557Z,997.08
2018-05-26T06:48:45.816Z,997.09
2018-05-26T06:49:45.725Z,997.10
2018-05-26T06:51:38.573Z,997.11
2018-05-26T06:52:38.471Z,997.09
2018-05-26T06:54:31.315Z,997.10
2018-05-26T06:55:31.248Z,997.10
2018-05-26T06:57:24.144Z,997.09
2018-05-26T06:58:23.972Z,997.14
2018-05-26T07:00:16.805Z,997.12
2018-05-26T07:01:16.619Z,997.10
2018-05-26T07:03:09.457Z,997.09
2018-05-26T07:04:09.369Z,997.12
2018-05-26T07:06:02.219Z,997.13
2018-05-26T07:07:02.109Z,997.09
2018-05-26T07:08:54.972Z,997.14
2018-05-26T07:09:54.867Z,997.16
2018-05-26T07:11:47.722Z,997.17
2018-05-26T07:12:47.609Z,997.16
2018-05-26T07:14:40.452Z,997.18
2018-05-26T07:15:40.363Z,997.18
2018-05-26T07:17:33.270Z,997.18
2018-05-26T07:18:33.144Z,997.16
2018-05-26T07:20:25.956Z,997.16
2018-05-26T07:21:25.863Z,997.18
2018-05-26T07:23:18.867Z,997.21
2018-05-26T07:24:18.627Z,997.18
2018-05-26T07:26:11.458Z,997.21
2018-05-26T07:27:11.362Z,997.19
2018-05-26T07:29:04.386Z,997.23
2018-05-26T07:30:04.133Z,997.22
2018-05-26T07:31:56.956Z,997.23
2018-05-26T07:32:56.876Z,997.25
2018-05-26T07:34:49.727Z,997.25
2018-05-26T07:35:49.612Z,997.26
2018-05-26T07:37:42.485Z,997.26
2018-05-26T07:38:42.367Z,997.24
2018-05-26T07:40:35.234Z,997.25
2018-05-26T07:41:35.104Z,997.24
2018-05-26T07:43:27.954Z,997.18
2018-05-26T07:44:27.861Z,997.20
2018-05-26T07:46:20.701Z,997.23
2018-05-26T07:47:20.674Z,997.24
2018-05-26T07:49:13.478Z,997.24
2018-05-26T07:50:13.357Z,997.25
2018-05-26T07:52:06.197Z,997.28
2018-05-26T07:53:06.171Z,997.25
2018-05-26T07:54:58.967Z,997.29
2018-05-26T07:55:58.856Z,997.31
2018-05-26T07:57:51.734Z,997.30
2018-05-26T07:58:51.607Z,997.32
2018-05-26T08:00:45.523Z,997.36
2018-05-26T08:01:44.993Z,997.34
2018-05-26T08:03:37.842Z,997.34
2018-05-26T08:04:37.718Z,997.35
2018-05-26T08:06:30.585Z,997.35
2018-05-26T08:07:30.477Z,997.40
2018-05-26T08:09:23.315Z,997.34
2018-05-26T08:10:23.217Z,997.39
2018-05-26T08:12:16.080Z,997.40
2018-05-26T08:13:15.991Z,997.42
2018-05-26T08:15:08.830Z,997.44
2018-05-26T08:16:08.734Z,997.42
2018-05-26T08:18:02.277Z,997.45
2018-05-26T08:19:01.556Z,997.42
2018-05-26T08:20:54.787Z,997.40
2018-05-26T08:21:54.680Z,997.43
2018-05-26T08:23:47.510Z,997.42
2018-05-26T08:24:47.416Z,997.40
2018-05-26T08:26:40.235Z,997.36
2018-05-26T08:27:40.173Z,997.41
2018-05-26T08:29:33.001Z,997.40
2018-05-26T08:30:32.900Z,997.41
2018-05-26T08:32:25.750Z,997.42
2018-05-26T08:33:25.662Z,997.43
2018-05-26T08:35:18.496Z,997.41
2018-05-26T08:36:18.400Z,997.37
2018-05-26T08:38:11.259Z,997.36
2018-05-26T08:39:11.158Z,997.33
2018-05-26T08:41:04.118Z,997.32
2018-05-26T08:42:04.012Z,997.32
2018-05-26T08:43:56.949Z,997.33
2018-05-26T08:44:56.843Z,997.35
2018-05-26T08:46:49.864Z,997.33
2018-05-26T08:47:49.683Z,997.33
2018-05-26T08:49:43.053Z,997.36
2018-05-26T08:50:42.965Z,997.34
2018-05-26T08:52:35.822Z,997.40
2018-05-26T08:53:35.704Z,997.39
2018-05-26T08:55:28.568Z,997.41
2018-05-26T08:56:28.450Z,997.35
2018-05-26T08:58:21.315Z,997.39
2018-05-26T08:59:21.679Z,997.40
2018-05-26T09:01:14.223Z,997.43
2018-05-26T09:02:14.000Z,997.41
2018-05-26T09:04:06.812Z,997.41
2018-05-26T09:05:06.725Z,997.47
2018-05-26T09:06:59.573Z,997.40
2018-05-26T09:07:59.461Z,997.45
2018-05-26T09:09:52.319Z,997.41
2018-05-26T09:10:52.193Z,997.43
2018-05-26T09:12:45.042Z,997.45
2018-05-26T09:13:44.955Z,997.44
2018-05-26T09:15:37.824Z,997.46
2018-05-26T09:16:37.740Z,997.47
2018-05-26T09:18:30.607Z,997.48
2018-05-26T09:19:30.446Z,997.49
2018-05-26T09:21:23.313Z,997.47
2018-05-26T09:22:23.213Z,997.40
2018-05-26T09:24:16.049Z,997.51
2018-05-26T09:25:16.044Z,997.51
2018-05-26T09:27:08.800Z,997.52
2018-05-26T09:28:08.717Z,997.46
2018-05-26T09:30:01.562Z,997.45
2018-05-26T09:31:01.460Z,997.53
2018-05-26T09:32:54.373Z,997.52
2018-05-26T09:33:54.250Z,997.52
2018-05-26T09:35:48.020Z,997.53
2018-05-26T09:36:47.217Z,997.53
2018-05-26T09:38:39.895Z,997.50
2018-05-26T09:39:39.806Z,997.50
2018-05-26T09:41:32.681Z,997.52
2018-05-26T09:42:32.562Z,997.53
2018-05-26T09:44:26.004Z,997.54
2018-05-26T09:45:25.304Z,997.51
2018-05-26T09:47:19.808Z,997.52
2018-05-26T09:48:19.695Z,997.55
2018-05-26T09:50:12.551Z,997.51
2018-05-26T09:51:12.435Z,997.57
2018-05-26T09:53:05.786Z,997.57
2018-05-26T09:54:05.709Z,997.57
2018-05-26T09:55:58.582Z,997.53
2018-05-26T09:56:58.470Z,997.56
2018-05-26T09:58:51.328Z,997.52
2018-05-26T09:59:51.212Z,997.52
2018-05-26T10:01:44.050Z,997.47
2018-05-26T10:02:43.949Z,997.52
2018-05-26T10:04:36.805Z,997.43
2018-05-26T10:05:36.711Z,997.46
2018-05-26T10:07:29.545Z,997.48
2018-05-26T10:08:29.494Z,997.48
2018-05-26T10:10:22.287Z,997.48
2018-05-26T10:11:22.262Z,997.46
2018-05-26T10:13:15.588Z,997.49
2018-05-26T10:14:14.951Z,997.49
2018-05-26T10:16:07.900Z,997.54
2018-05-26T10:17:07.692Z,997.50
2018-05-26T10:19:00.537Z,997.54
2018-05-26T10:20:00.480Z,997.48
2018-05-26T10:21:53.310Z,997.50
2018-05-26T10:22:53.200Z,997.50
2018-05-26T10:24:46.046Z,997.53
2018-05-26T10:25:45.953Z,997.52
2018-05-26T10:27:38.811Z,997.54
2018-05-26T10:28:38.702Z,997.58
2018-05-26T10:30:32.049Z,997.56
2018-05-26T10:31:31.980Z,997.55
2018-05-26T10:33:24.919Z,997.50
2018-05-26T10:34:24.831Z,997.53
2018-05-26T10:36:17.654Z,997.52
2018-05-26T10:37:17.557Z,997.51
2018-05-26T10:39:10.525Z,997.52
2018-05-26T10:40:10.424Z,997.58
2018-05-26T10:42:03.249Z,997.56
2018-05-26T10:43:03.169Z,997.56
2018-05-26T10:44:56.003Z,997.52
2018-05-26T10:45:55.910Z,997.46
2018-05-26T10:47:48.742Z,997.52
2018-05-26T10:48:48.657Z,997.57
2018-05-26T10:50:41.519Z,997.57
2018-05-26T10:51:41.434Z,997.55
2018-05-26T10:53:34.233Z,997.54
2018-05-26T10:54:34.157Z,997.53
2018-05-26T10:56:27.032Z,997.53
2018-05-26T10:57:26.911Z,997.59
2018-05-26T10:59:19.733Z,997.58
2018-05-26T11:00:19.679Z,997.54
2018-05-26T11:02:12.502Z,997.50
2018-05-26T11:03:12.404Z,997.49
2018-05-26T11:05:05.263Z,997.49
2018-05-26T11:06:05.148Z,997.49
2018-05-26T11:07:57.998Z,997.50
2018-05-26T11:08:57.915Z,997.53
2018-05-26T11:10:51.243Z,997.54
2018-05-26T11:11:51.157Z,997.57
2018-05-26T11:13:44.518Z,997.54
2018-05-26T11:14:44.425Z,997.44
2018-05-26T11:16:37.258Z,997.43
2018-05-26T11:17:37.242Z,997.47
2018-05-26T11:19:30.059Z,997.48
2018-05-26T11:20:29.950Z,997.53
2018-05-26T11:22:22.797Z,997.55
2018-05-26T11:23:22.680Z,997.51
2018-05-26T11:25:15.508Z,997.53
2018-05-26T11:26:15.422Z,997.45
2018-05-26T11:28:08.278Z,997.48
2018-05-26T11:29:08.178Z,997.40
2018-05-26T11:31:01.061Z,997.49
2018-05-26T11:32:00.928Z,997.50
2018-05-26T11:33:53.782Z,997.44
2018-05-26T11:34:53.667Z,997.43
2018-05-26T11:36:46.528Z,997.42
2018-05-26T11:37:46.433Z,997.46
2018-05-26T11:39:39.269Z,997.51
2018-05-26T11:40:39.182Z,997.51
2018-05-26T11:42:32.013Z,997.50
2018-05-26T11:43:31.947Z,997.51
2018-05-26T11:45:24.791Z,997.46
2018-05-26T11:46:24.691Z,997.47
2018-05-26T11:48:17.539Z,997.42
2018-05-26T11:49:17.428Z,997.43
2018-05-26T11:51:10.824Z,997.45
2018-05-26T11:52:10.685Z,997.46
2018-05-26T11:54:03.523Z,997.40
2018-05-26T11:55:03.458Z,997.35
2018-05-26T11:56:56.314Z,997.38
2018-05-26T11:57:56.180Z,997.36
2018-05-26T11:59:49.025Z,997.37
2018-05-26T12:00:48.950Z,997.38
2018-05-26T12:02:41.802Z,997.35
2018-05-26T12:03:41.681Z,997.34
2018-05-26T12:05:34.516Z,997.40
2018-05-26T12:06:34.458Z,997.35
2018-05-26T12:08:27.335Z,997.33
2018-05-26T12:09:27.178Z,997.37
2018-05-26T12:11:21.463Z,997.35
2018-05-26T12:12:21.373Z,997.38
2018-05-26T12:14:14.290Z,997.40
2018-05-26T12:15:14.112Z,997.44
2018-05-26T12:17:06.978Z,997.35
2018-05-26T12:18:06.861Z,997.36
2018-05-26T12:19:59.695Z,997.37
2018-05-26T12:20:59.613Z,997.39
2018-05-26T12:22:52.521Z,997.35
2018-05-26T12:23:52.363Z,997.37
2018-05-26T12:25:45.330Z,997.34
2018-05-26T12:26:45.119Z,997.40
2018-05-26T12:28:37.963Z,997.42
2018-05-26T12:29:37.856Z,997.36
2018-05-26T12:31:31.233Z,997.32
2018-05-26T12:32:31.122Z,997.27
2018-05-26T12:34:23.994Z,997.32
2018-05-26T12:35:23.903Z,997.27
2018-05-26T12:37:16.728Z,997.21
2018-05-26T12:38:16.627Z,997.17
2018-05-26T12:40:10.009Z,997.18
2018-05-26T12:41:09.462Z,997.23
2018-05-26T12:43:03.293Z,997.30
2018-05-26T12:44:03.153Z,997.24
2018-05-26T12:45:55.996Z,997.18
2018-05-26T12:46:55.910Z,997.18
2018-05-26T12:48:48.729Z,997.15
2018-05-26T12:49:48.636Z,997.15
2018-05-26T12:51:41.507Z,997.16
2018-05-26T12:52:41.447Z,997.14
2018-05-26T12:54:34.272Z,997.09
2018-05-26T12:55:34.196Z,997.07
2018-05-26T12:57:27.031Z,997.17
2018-05-26T12:58:26.906Z,997.16
2018-05-26T13:00:19.734Z,997.23
2018-05-26T13:01:19.651Z,997.17
2018-05-26T13:03:12.494Z,997.13
2018-05-26T13:04:12.408Z,997.13
2018-05-26T13:06:05.252Z,997.15
2018-05-26T13:07:05.138Z,997.18
2018-05-26T13:08:57.986Z,997.13
2018-05-26T13:09:57.908Z,997.15
2018-05-26T13:11:50.724Z,997.12
2018-05-26T13:12:50.645Z,997.16
2018-05-26T13:14:43.516Z,997.18
2018-05-26T13:15:43.390Z,997.14
2018-05-26T13:17:36.243Z,997.09
2018-05-26T13:18:36.158Z,997.08
2018-05-26T13:20:29.104Z,997.12
2018-05-26T13:21:28.994Z,997.07
2018-05-26T13:23:21.843Z,997.10
2018-05-26T13:24:21.743Z,997.05
2018-05-26T13:26:14.587Z,997.08
2018-05-26T13:27:14.503Z,997.13
2018-05-26T13:29:07.322Z,997.10
2018-05-26T13:30:07.237Z,997.08
2018-05-26T13:32:00.113Z,997.06
2018-05-26T13:32:59.988Z,997.03
2018-05-26T13:34:52.903Z,997.03
2018-05-26T13:35:52.775Z,997.01
2018-05-26T13:37:45.603Z,997.00
2018-05-26T13:38:45.556Z,997.05
2018-05-26T13:40:38.855Z,996.98
2018-05-26T13:41:38.768Z,997.04
2018-05-26T13:43:31.668Z,997.00
2018-05-26T13:44:31.521Z,996.95
2018-05-26T13:46:24.347Z,996.94
2018-05-26T13:47:24.257Z,997.02
2018-05-26T13:49:17.612Z,996.96
2018-05-26T13:50:17.508Z,996.93
2018-05-26T13:52:10.429Z,997.02
2018-05-26T13:53:10.334Z,996.98
2018-05-26T13:55:03.185Z,996.97
2018-05-26T13:56:03.012Z,996.97
2018-05-26T13:57:55.844Z,996.98
2018-05-26T13:58:55.771Z,996.99
2018-05-26T14:00:48.614Z,996.91
2018-05-26T14:01:48.512Z,996.94
2018-05-26T14:03:41.374Z,996.94
2018-05-26T14:04:41.279Z,996.91
2018-05-26T14:06:34.114Z,996.85
2018-05-26T14:07:34.006Z,996.96
2018-05-26T14:09:26.855Z,996.91
2018-05-26T14:10:26.756Z,996.89
2018-05-26T14:12:24.768Z,996.88
2018-05-26T14:13:22.975Z,996.85
2018-05-26T14:15:14.708Z,996.86
2018-05-26T14:16:14.621Z,996.89
2018-05-26T14:18:11.976Z,996.86
2018-05-26T14:19:11.299Z,996.85
2018-05-26T14:21:04.308Z,996.86
2018-05-26T14:22:04.224Z,996.84
2018-05-26T14:23:57.060Z,996.88
2018-05-26T14:24:56.968Z,996.79
2018-05-26T14:26:49.804Z,996.85
2018-05-26T14:27:49.732Z,996.82
2018-05-26T14:29:42.555Z,996.86
2018-05-26T14:30:42.480Z,996.84
2018-05-26T14:32:35.816Z,996.86
2018-05-26T14:33:35.859Z,996.87
2018-05-26T14:35:28.663Z,996.81
2018-05-26T14:36:28.472Z,996.84
2018-05-26T14:38:21.296Z,996.83
2018-05-26T14:39:21.221Z,996.87
2018-05-26T14:41:14.113Z,996.86
2018-05-26T14:42:14.004Z,996.87
2018-05-26T14:44:06.804Z,996.92
2018-05-26T14:45:06.719Z,996.88
2018-05-26T14:46:59.745Z,996.85
2018-05-26T14:47:59.470Z,996.79
2018-05-26T14:49:52.371Z,996.82
2018-05-26T14:50:52.319Z,996.82
2018-05-26T14:52:46.096Z,996.81
2018-05-26T14:53:46.130Z,996.80
2018-05-26T14:55:38.833Z,996.85
2018-05-26T14:56:38.762Z,996.84
2018-05-26T14:58:31.642Z,996.82
2018-05-26T14:59:31.495Z,996.83
2018-05-26T15:01:24.355Z,996.83
2018-05-26T15:02:24.237Z,996.90
2018-05-26T15:04:17.084Z,996.88
2018-05-26T15:05:18.025Z,996.82
2018-05-26T15:07:09.830Z,996.76
2018-05-26T15:08:09.755Z,996.83
2018-05-26T15:10:02.588Z,996.78
2018-05-26T15:11:02.498Z,996.79
2018-05-26T15:12:55.954Z,996.78
2018-05-26T15:13:55.242Z,996.75
2018-05-26T15:15:48.113Z,996.79
2018-05-26T15:16:48.019Z,996.76
2018-05-26T15:18:40.838Z,996.76
2018-05-26T15:19:40.737Z,996.79
2018-05-26T15:21:33.585Z,996.75
2018-05-26T15:22:33.480Z,996.78
2018-05-26T15:24:26.338Z,996.77
2018-05-26T15:25:26.245Z,996.80
2018-05-26T15:27:19.080Z,996.78
2018-05-26T15:28:18.986Z,996.80
2018-05-26T15:30:12.327Z,996.77
2018-05-26T15:31:12.256Z,996.75
2018-05-26T15:33:05.096Z,996.77
2018-05-26T15:34:05.003Z,996.73
2018-05-26T15:35:58.574Z,996.72
2018-05-26T15:36:57.756Z,996.74
2018-05-26T15:38:50.851Z,996.69
2018-05-26T15:39:50.503Z,996.66
2018-05-26T15:41:43.337Z,996.67
2018-05-26T15:42:46.240Z,996.67
2018-05-26T15:44:36.135Z,996.66
2018-05-26T15:45:35.991Z,996.69
2018-05-26T15:47:29.050Z,996.67
2018-05-26T15:48:29.061Z,996.64
2018-05-26T15:50:21.805Z,996.63
2018-05-26T15:51:21.716Z,996.66
2018-05-26T15:53:14.569Z,996.65
2018-05-26T15:54:14.521Z,996.69
2018-05-26T15:56:08.631Z,996.65
2018-05-26T15:57:07.208Z,996.65
2018-05-26T15:59:00.047Z,996.66
2018-05-26T15:59:59.971Z,996.68
2018-05-26T16:01:52.877Z,996.68
2018-05-26T16:02:52.698Z,996.71
2018-05-26T16:04:45.622Z,996.79
2018-05-26T16:05:45.456Z,996.82
2018-05-26T16:07:38.291Z,996.90
2018-05-26T16:08:38.195Z,996.93
2018-05-26T16:10:31.052Z,996.92
2018-05-26T16:11:30.938Z,996.96
2018-05-26T16:13:23.802Z,996.92
2018-05-26T16:14:23.693Z,996.92
2018-05-26T16:16:16.548Z,996.93
2018-05-26T16:17:16.443Z,996.93
2018-05-26T16:19:09.290Z,996.98
2018-05-26T16:20:09.192Z,996.96
2018-05-26T16:22:02.068Z,996.96
2018-05-26T16:23:01.973Z,996.92
2018-05-26T16:24:54.794Z,996.95
2018-05-26T16:25:54.720Z,996.95
2018-05-26T16:27:47.585Z,997.00
2018-05-26T16:28:47.447Z,997.03
2018-05-26T16:30:40.270Z,996.97
2018-05-26T16:31:40.231Z,996.97
2018-05-26T16:33:33.048Z,996.96
2018-05-26T16:34:32.949Z,996.96
2018-05-26T16:36:25.874Z,996.96
2018-05-26T16:37:25.712Z,996.98
2018-05-26T16:39:20.229Z,996.96
2018-05-26T16:40:20.309Z,996.96
2018-05-26T16:42:13.946Z,996.94
2018-05-26T16:43:13.760Z,996.99
2018-05-26T16:45:06.636Z,997.01
2018-05-26T16:46:06.516Z,997.01
2018-05-26T16:47:59.335Z,997.01
2018-05-26T16:48:59.257Z,996.98
2018-05-26T16:50:52.189Z,997.01
2018-05-26T16:51:52.007Z,996.98
2018-05-26T16:53:45.348Z,997.07
2018-05-26T16:54:45.289Z,997.03
2018-05-26T16:56:38.141Z,996.99
2018-05-26T16:57:38.051Z,997.03
2018-05-26T16:59:31.077Z,997.04
2018-05-26T17:00:31.006Z,997.03
2018-05-26T17:02:23.812Z,997.02
2018-05-26T17:03:23.724Z,996.99
2018-05-26T17:05:16.589Z,996.99
2018-05-26T17:06:16.495Z,996.99
2018-05-26T17:08:09.300Z,997.04
2018-05-26T17:09:09.221Z,997.06
2018-05-26T17:11:02.088Z,997.07
2018-05-26T17:12:01.999Z,997.06
2018-05-26T17:13:54.812Z,997.01
2018-05-26T17:14:54.715Z,996.97
2018-05-26T17:16:47.608Z,996.95
2018-05-26T17:17:47.484Z,996.91
2018-05-26T17:19:40.336Z,996.93
2018-05-26T17:20:40.219Z,996.97
2018-05-26T17:22:33.060Z,996.99
2018-05-26T17:23:32.966Z,997.01
2018-05-26T17:25:25.802Z,997.02
2018-05-26T17:26:25.724Z,997.03
2018-05-26T17:28:18.564Z,997.07
2018-05-26T17:29:18.471Z,997.04
2018-05-26T17:31:11.296Z,997.04
2018-05-26T17:32:11.226Z,997.08
2018-05-26T17:34:04.086Z,997.06
2018-05-26T17:35:03.971Z,997.09
2018-05-26T17:36:56.804Z,997.12
2018-05-26T17:37:56.740Z,997.12
2018-05-26T17:39:49.564Z,997.04
2018-05-26T17:40:49.477Z,997.08
2018-05-26T17:42:42.400Z,997.08
2018-05-26T17:43:42.243Z,997.05
2018-05-26T17:45:35.128Z,997.07
2018-05-26T17:46:34.965Z,997.06
2018-05-26T17:48:27.783Z,997.05
2018-05-26T17:49:27.719Z,997.06
2018-05-26T17:51:21.087Z,997.00
2018-05-26T17:52:20.988Z,997.03
2018-05-26T17:54:13.806Z,997.02
2018-05-26T17:55:13.737Z,997.03
2018-05-26T17:57:06.570Z,997.02
2018-05-26T17:58:06.480Z,996.98